Lobo

Go HERE for most recent data if this page is not up to date.

Jump to table bottom
Date/Time Temp deg F RH % 24 Hr Snow (in) Snow Depth (in) H2O (in)
03/25 02:00 22.6 91 1.2 61.2 0.00
03/25 01:00 23.6 86 0.4 60.8 0.00
03/25 00:00 24.4 88 0.8 60.9 0.01
03/24 23:00 25.1 90 0.8 61.0 0.01
03/24 22:00 26.0 96 0.8 61.0 0.00
03/24 21:00 26.4 98 0.7 61.0 0.00
03/24 20:00 26.9 96 0.4 60.9 0.01
03/24 19:00 28.3 88 0.5 60.9 0.00
03/24 18:00 29.0 92 0.7 60.6 0.01
03/24 17:00 29.1 90 0.4 60.8 0.04
03/24 16:00 29.6 80 0.6 59.3 0.05
03/24 15:00 33.2 77 -0.1 58.0 0.00
03/24 14:00 31.1 58 -0.0 58.5 0.00
03/24 13:00 32.0 78 -0.3 57.9 0.00
03/24 12:00 33.4 56 -0.2 58.2 0.00
03/24 11:00 30.4 62 -0.0 58.6 0.00
03/24 10:00 27.7 65 0.1 58.8 0.00
03/24 09:00 25.8 71 0.2 59.0 0.01
03/24 08:00 24.5 76 0.2 59.0 0.00
03/24 07:00 23.7 77 0.3 59.3 0.01
03/24 06:00 23.8 80 0.2 59.1 0.00
03/24 05:00 23.2 81 0.3 59.1 0.01
03/24 04:00 23.7 83 0.2 59.1 0.00
03/24 03:00 23.9 81 0.2 59.0 0.01
03/24 02:00 24.8 73 0.2 59.2 0.00
03/24 01:00 25.4 74 0.2 58.9 0.00
03/24 00:00 26.1 70 0.1 58.7 0.00
.